Time;durP1;ratioP1;P1;durP2;ratioP2;P2;SDS_P1;SDS_P2;PMS_P1;PMS_P2;Temp;Humidity;BMP_temperature;BMP_pressure;BME280_temperature;BME280_humidity;BME280_pressure;Samples;Min_cycle;Max_cycle;Signal;HPM_P1;HPM_P2
2022/08/27 00:01:47;;;;;;;7.35;2.13;;;;;;;17.93;87.66;101597.91;5050371;28;20055;-58
2022/08/27 00:04:15;;;;;;;5.47;1.90;;;;;;;17.94;87.61;101599.56;5052311;28;20389;-58
2022/08/27 00:06:44;;;;;;;6.13;2.03;;;;;;;17.95;87.39;101595.94;5054974;28;20508;-58
2022/08/27 00:09:14;;;;;;;6.53;1.85;;;;;;;17.96;87.70;101591.50;5055165;28;20051;-67
2022/08/27 00:11:45;;;;;;;7.82;1.75;;;;;;;17.90;87.80;101598.97;5055316;28;20045;-67
2022/08/27 00:14:14;;;;;;;8.95;1.80;;;;;;;17.90;88.26;101595.47;5055127;28;20059;-66
2022/08/27 00:16:43;;;;;;;7.05;1.90;;;;;;;17.89;88.57;101591.13;5055016;28;20052;-67
2022/08/27 00:19:12;;;;;;;7.43;2.20;;;;;;;17.84;88.93;101582.69;5054917;28;20499;-57
2022/08/27 00:21:43;;;;;;;7.88;1.80;;;;;;;17.89;88.77;101591.97;5055080;28;20045;-57
2022/08/27 00:24:11;;;;;;;7.93;1.70;;;;;;;17.97;88.31;101591.34;5053591;28;20041;-67
2022/08/27 00:26:40;;;;;;;5.93;1.70;;;;;;;17.82;88.36;101589.94;5054956;28;20041;-66
2022/08/27 00:29:11;;;;;;;7.03;2.30;;;;;;;17.84;88.53;101593.34;5053645;28;20144;-58
2022/08/27 00:31:39;;;;;;;5.25;1.73;;;;;;;17.88;88.81;101590.28;5054758;28;20049;-58
2022/08/27 00:34:08;;;;;;;7.53;2.08;;;;;;;17.86;88.71;101586.03;5051954;28;20057;-58
2022/08/27 00:36:40;;;;;;;6.27;1.80;;;;;;;17.78;88.75;101588.50;5052854;28;20111;-58
2022/08/27 00:39:08;;;;;;;8.88;2.10;;;;;;;17.68;88.82;101584.00;5051884;28;20045;-57
2022/08/27 00:41:37;;;;;;;5.97;1.75;;;;;;;17.54;88.90;101581.63;5051889;28;20052;-66
2022/08/27 00:44:06;;;;;;;4.68;1.85;;;;;;;17.44;89.95;101580.69;5052049;28;20049;-66
2022/08/27 00:46:41;;;;;;;7.30;2.13;;;;;;;17.60;90.00;101582.94;5052255;28;20083;-59
2022/08/27 00:49:13;;;;;;;5.35;1.83;;;;;;;17.58;89.53;101581.22;5051539;28;20079;-59
2022/08/27 00:51:41;;;;;;;6.72;2.00;;;;;;;17.60;90.11;101581.13;5051755;28;20078;-58
2022/08/27 00:54:09;;;;;;;5.57;2.00;;;;;;;17.56;89.57;101585.84;5050597;28;20077;-67
2022/08/27 00:56:45;;;;;;;6.80;1.90;;;;;;;17.62;89.44;101583.66;5051312;28;20049;-66
2022/08/27 00:59:22;;;;;;;7.35;1.88;;;;;;;17.56;89.47;101590.31;5053700;28;20041;-66
2022/08/27 01:04:40;;;;;;;5.75;2.00;;;;;;;17.54;89.25;101578.97;5051810;28;20133;-66
2022/08/27 01:07:10;;;;;;;9.32;1.98;;;;;;;17.56;88.99;101580.53;5050572;28;20049;-59
2022/08/27 01:09:39;;;;;;;5.00;1.75;;;;;;;17.46;89.10;101578.75;5050580;28;20037;-58
2022/08/27 01:12:10;;;;;;;4.95;1.95;;;;;;;17.53;89.44;101582.59;5051197;28;20064;-58
2022/08/27 01:14:41;;;;;;;7.15;2.15;;;;;;;17.58;89.05;101575.09;5050363;28;20053;-58
2022/08/27 01:17:13;;;;;;;7.40;1.85;;;;;;;17.58;88.40;101580.41;5051584;28;20049;-58
2022/08/27 01:19:45;;;;;;;7.15;2.10;;;;;;;17.46;88.74;101586.75;5050806;28;20064;-59
2022/08/27 01:22:23;;;;;;;6.40;2.00;;;;;;;17.51;88.91;101582.72;5051293;28;20051;-67
2022/08/27 01:24:55;;;;;;;8.48;2.70;;;;;;;17.61;88.47;101582.78;5049584;28;20056;-65
2022/08/27 01:27:27;;;;;;;8.30;2.05;;;;;;;17.54;88.68;101582.47;5050915;28;20411;-66
2022/08/27 01:29:55;;;;;;;6.93;1.90;;;;;;;17.52;88.43;101584.41;5050992;28;20036;-59
2022/08/27 01:32:26;;;;;;;6.47;2.03;;;;;;;17.60;88.61;101586.44;5053476;28;20458;-58
2022/08/27 01:34:55;;;;;;;6.88;2.15;;;;;;;17.63;88.88;101575.53;5053707;28;20508;-58
2022/08/27 01:37:25;;;;;;;8.18;1.90;;;;;;;17.62;88.81;101571.19;5052070;28;20044;-58
2022/08/27 01:39:57;;;;;;;4.95;1.63;;;;;;;17.61;88.56;101577.47;5049665;28;20126;-66
2022/08/27 01:42:30;;;;;;;15.52;2.85;;;;;;;17.66;88.57;101569.97;5050517;28;20044;-57
2022/08/27 01:45:01;;;;;;;7.90;2.50;;;;;;;17.63;88.59;101575.53;5050918;28;20041;-66
2022/08/27 01:47:34;;;;;;;6.43;2.08;;;;;;;17.60;88.67;101575.81;5051188;28;20091;-58
2022/08/27 01:50:05;;;;;;;8.18;2.35;;;;;;;17.70;87.98;101578.53;5050331;28;20041;-58
2022/08/27 01:52:33;;;;;;;5.90;2.00;;;;;;;17.70;88.30;101576.72;5050732;28;20381;-66
2022/08/27 01:55:05;;;;;;;7.03;2.45;;;;;;;17.65;87.89;101578.91;5049067;28;20049;-58
2022/08/27 01:57:34;;;;;;;7.35;2.10;;;;;;;17.58;88.29;101573.25;5050148;28;20507;-59
2022/08/27 02:00:02;;;;;;;7.13;2.00;;;;;;;17.57;88.29;101574.25;5050402;28;20040;-58
2022/08/27 02:02:31;;;;;;;6.88;2.00;;;;;;;17.65;87.94;101570.94;5049671;28;20059;-58
2022/08/27 02:04:59;;;;;;;5.22;1.85;;;;;;;17.70;88.54;101576.72;5050319;28;20057;-59
2022/08/27 02:07:27;;;;;;;9.18;2.10;;;;;;;17.69;88.22;101569.69;5050441;28;20037;-67
2022/08/27 02:09:55;;;;;;;9.18;2.20;;;;;;;17.62;88.28;101576.50;5048851;28;20053;-66
2022/08/27 02:12:25;;;;;;;6.65;2.13;;;;;;;17.67;88.39;101576.97;5051974;28;20071;-65
2022/08/27 02:14:53;;;;;;;7.30;2.13;;;;;;;17.60;88.61;101572.28;5050071;28;20057;-65
2022/08/27 02:17:21;;;;;;;7.82;2.30;;;;;;;17.59;88.58;101563.47;5050194;28;20504;-66
2022/08/27 02:19:49;;;;;;;9.30;2.20;;;;;;;17.58;87.86;101567.09;5049941;28;20041;-65
2022/08/27 02:22:17;;;;;;;6.90;2.25;;;;;;;17.56;87.68;101569.03;5052282;28;20056;-66
2022/08/27 02:24:45;;;;;;;5.03;1.90;;;;;;;17.61;87.03;101566.84;5052040;28;20045;-66
2022/08/27 02:27:13;;;;;;;9.85;2.10;;;;;;;17.50;87.55;101561.59;5048839;28;20515;-66
2022/08/27 02:29:42;;;;;;;7.00;1.85;;;;;;;17.47;87.81;101559.19;5049978;28;20049;-65
2022/08/27 02:32:13;;;;;;;6.03;1.92;;;;;;;17.37;88.11;101559.13;5049932;28;20065;-58
2022/08/27 02:35:00;;;;;;;6.55;2.10;;;;;;;17.50;87.38;101562.41;5048695;28;20542;-58
2022/08/27 02:37:29;;;;;;;8.30;2.20;;;;;;;17.51;87.30;101558.78;5052399;28;20385;-58
2022/08/27 02:39:57;;;;;;;6.65;2.30;;;;;;;17.53;87.04;101562.19;5052241;28;20040;-58
2022/08/27 02:42:25;;;;;;;7.75;2.10;;;;;;;17.58;86.93;101567.09;5050558;28;20052;-58
2022/08/27 02:44:55;;;;;;;8.88;2.40;;;;;;;17.47;87.49;101560.03;5049616;28;20053;-57
2022/08/27 02:47:23;;;;;;;6.90;2.22;;;;;;;17.43;87.44;101566.56;5049814;28;20085;-65
2022/08/27 02:49:51;;;;;;;8.70;2.80;;;;;;;17.53;87.10;101559.53;5049563;28;20056;-66
2022/08/27 02:52:19;;;;;;;5.55;1.98;;;;;;;17.42;87.76;101556.88;5049714;28;20049;-58
2022/08/27 02:54:52;;;;;;;6.88;2.50;;;;;;;17.41;87.68;101555.22;5048019;28;20145;-65
2022/08/27 02:57:21;;;;;;;5.47;1.95;;;;;;;17.36;87.45;101552.09;5049391;28;20057;-64
2022/08/27 02:59:49;;;;;;;5.90;2.20;;;;;;;17.26;87.67;101549.38;5049476;28;20115;-65
2022/08/27 03:02:19;;;;;;;7.80;2.08;;;;;;;17.23;87.95;101554.91;5052392;28;20143;-58
2022/08/27 03:04:48;;;;;;;9.80;2.17;;;;;;;17.21;88.20;101554.22;5052111;28;20120;-57
2022/08/27 03:07:19;;;;;;;6.68;2.58;;;;;;;17.19;87.66;101551.69;5049092;28;20060;-58
2022/08/27 03:09:47;;;;;;;8.05;2.40;;;;;;;17.27;87.53;101551.03;5047882;28;20159;-64
2022/08/27 03:12:15;;;;;;;6.05;2.38;;;;;;;17.14;87.37;101547.69;5048974;28;20037;-65
2022/08/27 03:14:44;;;;;;;6.55;2.28;;;;;;;17.14;87.47;101545.91;5049152;28;20087;-57
2022/08/27 03:20:00;;;;;;;6.22;2.40;;;;;;;17.09;87.26;101549.91;5051987;28;20033;-65
2022/08/27 03:22:28;;;;;;;9.15;2.35;;;;;;;17.10;87.07;101546.25;5051800;28;20053;-57
2022/08/27 03:24:56;;;;;;;6.65;2.38;;;;;;;17.02;87.38;101550.38;5051559;28;20060;-58
2022/08/27 03:27:24;;;;;;;8.77;2.33;;;;;;;16.96;87.40;101556.22;5049070;28;20044;-65
2022/08/27 03:29:53;;;;;;;7.93;2.08;;;;;;;17.04;87.60;101550.25;5049244;28;20045;-65
2022/08/27 03:32:21;;;;;;;7.88;2.38;;;;;;;17.00;88.06;101556.78;5048985;28;20653;-58
2022/08/27 03:34:49;;;;;;;6.03;2.25;;;;;;;17.05;87.34;101554.63;5051478;28;20079;-64
2022/08/27 03:37:18;;;;;;;6.50;2.38;;;;;;;16.97;88.01;101554.38;5052512;28;20064;-63
2022/08/27 03:39:46;;;;;;;8.05;2.88;;;;;;;17.07;87.73;101550.03;5050604;28;20049;-58
2022/08/27 03:42:14;;;;;;;7.90;2.30;;;;;;;16.89;87.84;101555.00;5053036;28;20047;-58
2022/08/27 03:44:42;;;;;;;7.13;2.60;;;;;;;16.98;87.71;101554.25;5052821;28;20557;-65
2022/08/27 03:47:10;;;;;;;6.47;2.28;;;;;;;17.00;88.12;101560.31;5054443;28;20053;-65
2022/08/27 03:49:39;;;;;;;6.15;2.38;;;;;;;16.99;87.98;101563.94;5055344;28;20049;-58
2022/08/27 03:52:08;;;;;;;7.05;2.30;;;;;;;16.94;88.68;101558.13;5053357;28;20119;-66
2022/08/27 03:54:38;;;;;;;5.18;2.15;;;;;;;16.94;88.81;101563.44;5050455;28;20920;-59
2022/08/27 03:57:07;;;;;;;5.93;2.10;;;;;;;16.83;89.12;101561.63;5052813;28;20057;-65
2022/08/27 03:59:35;;;;;;;9.70;3.30;;;;;;;16.73;89.16;101550.91;5053093;28;20060;-58
2022/08/27 04:02:04;;;;;;;8.02;2.55;;;;;;;16.79;89.14;101554.03;5052844;28;20045;-59
2022/08/27 04:04:32;;;;;;;8.45;2.33;;;;;;;16.67;89.35;101547.91;5052631;28;20053;-58
2022/08/27 04:07:00;;;;;;;6.57;2.28;;;;;;;16.64;89.70;101556.94;5052631;28;20103;-59
2022/08/27 04:09:28;;;;;;;8.65;2.75;;;;;;;16.58;90.12;101562.75;5052164;28;20053;-64
2022/08/27 04:11:58;;;;;;;6.93;2.58;;;;;;;16.67;89.92;101561.16;5053506;28;20152;-64
2022/08/27 04:14:26;;;;;;;8.00;2.65;;;;;;;16.67;89.72;101567.31;5052261;28;20053;-57
2022/08/27 04:16:55;;;;;;;7.43;2.65;;;;;;;16.69;90.35;101575.19;5054606;28;20046;-57
2022/08/27 04:19:24;;;;;;;7.60;2.83;;;;;;;16.83;89.49;101566.09;5054753;28;20056;-58
2022/08/27 04:21:59;;;;;;;7.85;2.47;;;;;;;16.79;90.42;101565.50;5054546;28;20044;-66
2022/08/27 04:24:28;;;;;;;8.77;2.88;;;;;;;16.94;89.31;101565.28;5054740;28;20037;-58
2022/08/27 04:26:56;;;;;;;6.93;2.50;;;;;;;17.03;89.15;101568.03;5054773;28;20041;-65
2022/08/27 04:29:25;;;;;;;6.75;2.75;;;;;;;16.89;89.00;101568.28;5051993;28;20064;-58
2022/08/27 04:31:54;;;;;;;9.10;2.80;;;;;;;16.79;89.44;101564.66;5052502;28;20044;-59
2022/08/27 04:34:23;;;;;;;7.57;2.58;;;;;;;16.75;89.55;101571.19;5054422;28;20052;-57
2022/08/27 04:36:52;;;;;;;9.05;2.85;;;;;;;16.76;89.75;101568.41;5054330;28;20068;-65
2022/08/27 04:39:20;;;;;;;11.18;3.03;;;;;;;16.75;90.25;101574.69;5051057;28;20057;-58
2022/08/27 04:41:49;;;;;;;10.40;2.95;;;;;;;16.71;89.66;101563.47;5050154;28;20041;-58
2022/08/27 04:44:17;;;;;;;7.53;2.35;;;;;;;16.67;89.94;101564.66;5051474;28;20049;-66
2022/08/27 04:46:47;;;;;;;7.82;2.97;;;;;;;16.62;89.99;101564.19;5051717;28;20095;-59
2022/08/27 04:49:16;;;;;;;6.15;2.47;;;;;;;16.57;90.33;101563.72;5050297;28;20045;-58
2022/08/27 04:51:46;;;;;;;7.07;2.53;;;;;;;16.66;90.22;101573.63;5053161;28;20045;-59
2022/08/27 04:54:15;;;;;;;7.90;2.85;;;;;;;16.63;90.75;101579.16;5050895;28;20095;-64
2022/08/27 04:56:43;;;;;;;8.82;2.42;;;;;;;16.62;90.39;101572.16;5051170;28;20389;-60
2022/08/27 04:59:12;;;;;;;9.52;2.35;;;;;;;16.56;90.20;101575.28;5053365;28;20567;-64
2022/08/27 05:01:42;;;;;;;7.57;2.65;;;;;;;16.51;90.97;101577.47;5051519;28;20049;-65
2022/08/27 05:04:15;;;;;;;9.73;2.80;;;;;;;16.38;90.93;101578.44;5053272;28;20124;-57
2022/08/27 05:06:44;;;;;;;8.52;2.60;;;;;;;16.43;90.51;101571.91;5054004;28;20056;-63
2022/08/27 05:09:13;;;;;;;6.43;2.63;;;;;;;16.38;91.13;101575.78;5053666;28;20076;-59
2022/08/27 05:11:42;;;;;;;6.82;2.67;;;;;;;16.27;90.68;101586.41;5050705;28;20415;-58
2022/08/27 05:14:14;;;;;;;8.90;2.60;;;;;;;16.39;90.62;101585.44;5051337;28;20057;-65
2022/08/27 05:16:45;;;;;;;7.50;2.90;;;;;;;16.37;90.54;101587.38;5051158;28;20045;-63
2022/08/27 05:19:15;;;;;;;8.35;2.35;;;;;;;16.33;90.73;101591.25;5051341;28;20503;-58
2022/08/27 05:21:47;;;;;;;8.52;2.85;;;;;;;16.29;91.30;101591.56;5053126;28;20037;-57
2022/08/27 05:24:16;;;;;;;6.63;2.47;;;;;;;16.31;91.08;101595.81;5049687;28;20053;-63
2022/08/27 05:26:45;;;;;;;7.15;2.72;;;;;;;16.30;91.31;101594.09;5051428;28;20510;-64
2022/08/27 05:29:13;;;;;;;6.65;2.35;;;;;;;16.43;90.90;101594.00;5052093;28;20511;-64
2022/08/27 05:31:42;;;;;;;5.85;2.45;;;;;;;16.37;90.73;101598.00;5050671;28;20392;-63
2022/08/27 05:34:11;;;;;;;6.50;2.42;;;;;;;16.38;91.32;101589.03;5049302;28;20098;-64
2022/08/27 05:36:54;;;;;;;9.95;3.17;;;;;;;16.31;91.50;101579.88;5053265;28;20065;-64
2022/08/27 05:39:22;;;;;;;10.00;2.58;;;;;;;16.33;91.75;101580.63;5053585;28;20045;-58
2022/08/27 05:41:51;;;;;;;8.02;2.53;;;;;;;16.48;91.18;101593.63;5052231;28;20053;-63
2022/08/27 05:44:19;;;;;;;8.13;2.58;;;;;;;16.49;92.65;101587.38;5053502;28;20049;-57
2022/08/27 05:47:07;;;;;;;9.25;3.10;;;;;;;16.44;92.35;101592.19;5050975;28;20045;-65
2022/08/27 05:49:36;;;;;;;9.27;2.92;;;;;;;16.54;91.54;101587.88;5050956;28;20045;-64
2022/08/27 05:52:10;;;;;;;7.03;2.47;;;;;;;16.43;91.69;101590.50;5051103;28;20069;-64
2022/08/27 05:54:39;;;;;;;6.82;2.60;;;;;;;16.35;91.60;101599.09;5052769;28;20519;-58
2022/08/27 05:57:07;;;;;;;7.78;2.80;;;;;;;16.39;91.31;101593.41;5052706;28;20413;-58
2022/08/27 06:02:22;;;;;;;8.45;2.50;;;;;;;16.39;91.88;101589.91;5051061;28;20045;-64
2022/08/27 06:04:50;;;;;;;9.02;2.70;;;;;;;16.46;92.16;101590.28;5052648;28;20132;-57
2022/08/27 06:07:20;;;;;;;8.80;3.08;;;;;;;16.59;91.78;101590.16;5052420;28;20041;-57
2022/08/27 06:09:48;;;;;;;6.05;2.80;;;;;;;16.68;92.00;101592.06;5052734;28;20048;-65
2022/08/27 06:12:16;;;;;;;6.18;2.78;;;;;;;16.71;91.83;101587.38;5052434;28;20045;-65
2022/08/27 06:14:44;;;;;;;7.88;2.70;;;;;;;16.80;90.58;101590.28;5051334;28;20079;-66
2022/08/27 06:17:12;;;;;;;6.97;2.80;;;;;;;16.80;91.04;101579.66;5050497;28;20063;-66
2022/08/27 06:19:41;;;;;;;4.80;2.30;;;;;;;16.87;91.45;101588.81;5052568;28;20457;-67
2022/08/27 06:22:09;;;;;;;8.57;2.70;;;;;;;16.95;91.05;101591.72;5050532;28;20592;-61
2022/08/27 06:24:40;;;;;;;7.32;2.30;;;;;;;17.06;90.89;101593.50;5049566;28;20060;-58
2022/08/27 06:27:10;;;;;;;5.45;2.30;;;;;;;17.16;89.63;101602.41;5049967;28;20053;-58
2022/08/27 06:29:39;;;;;;;7.70;2.50;;;;;;;17.23;89.54;101597.44;5051728;28;20041;-59
2022/08/27 06:32:08;;;;;;;8.32;2.70;;;;;;;17.31;89.41;101597.66;5053050;28;20045;-65
2022/08/27 06:34:37;;;;;;;10.15;2.40;;;;;;;17.42;88.77;101595.94;5053059;28;20515;-66
2022/08/27 06:37:05;;;;;;;7.10;2.42;;;;;;;17.50;88.23;101596.97;5052819;28;20049;-59
2022/08/27 06:39:35;;;;;;;8.30;1.90;;;;;;;17.55;85.16;101599.28;5052390;28;20053;-59
2022/08/27 06:42:06;;;;;;;8.18;2.10;;;;;;;17.69;84.89;101593.63;5051011;28;20160;-58
2022/08/27 06:44:34;;;;;;;6.55;2.20;;;;;;;17.82;85.03;101597.91;5049942;28;20060;-58
2022/08/27 06:47:03;;;;;;;6.55;1.98;;;;;;;17.89;84.74;101599.94;5048707;28;20037;-65
2022/08/27 06:49:32;;;;;;;6.70;2.10;;;;;;;17.99;84.60;101600.03;5049977;28;20688;-60
2022/08/27 06:52:00;;;;;;;5.78;2.17;;;;;;;18.12;84.46;101599.84;5048549;28;20492;-61
2022/08/27 06:54:29;;;;;;;6.05;2.40;;;;;;;18.19;83.12;101592.19;5048245;28;20415;-59
2022/08/27 06:56:58;;;;;;;6.55;2.00;;;;;;;18.30;79.56;101593.94;5051574;28;20438;-61
2022/08/27 06:59:28;;;;;;;6.53;1.90;;;;;;;18.30;79.86;101592.09;5052521;28;20056;-58
2022/08/27 07:01:56;;;;;;;3.88;1.60;;;;;;;18.40;80.24;101595.63;5052567;28;20033;-64
2022/08/27 07:04:25;;;;;;;3.78;1.52;;;;;;;18.51;78.47;101596.53;5051291;28;20063;-58
2022/08/27 07:07:00;;;;;;;3.97;1.40;;;;;;;18.66;79.12;101597.84;5049975;28;20037;-60
2022/08/27 07:09:30;;;;;;;7.22;1.70;;;;;;;18.81;77.00;101595.66;5051877;28;20049;-59
2022/08/27 07:11:59;;;;;;;6.43;1.80;;;;;;;18.96;76.88;101596.16;5053053;28;20490;-58
2022/08/27 07:14:29;;;;;;;5.18;1.63;;;;;;;19.05;76.01;101600.66;5056539;28;20052;-60
2022/08/27 07:17:04;;;;;;;4.90;1.30;;;;;;;19.16;75.63;101599.69;5055178;28;20407;-67
2022/08/27 07:19:37;;;;;;;7.93;1.63;;;;;;;19.25;75.02;101603.34;5053718;28;20082;-66
2022/08/27 07:22:08;;;;;;;5.22;1.40;;;;;;;19.40;74.30;101590.44;5053793;28;20167;-66
2022/08/27 07:24:37;;;;;;;5.00;1.50;;;;;;;19.59;73.59;101592.28;5052583;28;20094;-66
2022/08/27 07:27:06;;;;;;;5.13;1.67;;;;;;;19.72;73.25;101600.00;5054095;28;20056;-66
2022/08/27 07:29:35;;;;;;;4.15;1.27;;;;;;;19.81;72.83;101601.88;5055179;28;20041;-59
2022/08/27 07:32:04;;;;;;;3.53;1.30;;;;;;;19.85;72.27;101607.75;5053564;28;20049;-58
2022/08/27 07:34:32;;;;;;;7.70;1.48;;;;;;;19.99;72.10;101604.63;5052699;28;20106;-58
2022/08/27 07:37:00;;;;;;;7.20;1.52;;;;;;;20.15;71.16;101608.53;5052997;28;20118;-56
2022/08/27 07:39:28;;;;;;;7.40;1.30;;;;;;;20.23;70.67;101609.50;5052104;28;20573;-65
2022/08/27 07:44:55;;;;;;;4.90;1.30;;;;;;;20.55;70.29;101607.44;5011373;28;20489;-66
2022/08/27 07:47:23;;;;;;;3.42;1.13;;;;;;;20.51;68.40;101611.38;5044631;28;20149;-64
2022/08/27 07:49:51;;;;;;;6.68;1.30;;;;;;;20.67;69.69;101608.91;5051979;28;20488;-69
2022/08/27 07:52:19;;;;;;;5.50;1.55;;;;;;;20.80;68.53;101613.09;5054263;28;20053;-57
2022/08/27 07:54:53;;;;;;;4.55;1.30;;;;;;;20.89;68.59;101620.25;5051143;28;20044;-69
2022/08/27 07:57:21;;;;;;;5.03;1.40;;;;;;;20.95;68.26;101611.59;5053709;28;20060;-57
2022/08/27 07:59:49;;;;;;;6.22;1.20;;;;;;;21.02;68.16;101607.34;5055316;28;20507;-65
2022/08/27 08:02:19;;;;;;;4.25;1.30;;;;;;;21.03;67.91;101614.38;5054945;28;20067;-70
2022/08/27 08:04:47;;;;;;;4.85;1.20;;;;;;;20.99;68.35;101610.31;5055369;28;20048;-58
2022/08/27 08:07:15;;;;;;;6.18;1.58;;;;;;;21.17;67.35;101613.00;5053621;28;20089;-58
2022/08/27 08:09:43;;;;;;;4.80;1.13;;;;;;;21.09;66.95;101616.47;5050668;28;20106;-67
2022/08/27 08:12:11;;;;;;;4.88;1.25;;;;;;;21.14;66.28;101617.84;5054556;28;20045;-59
2022/08/27 08:14:39;;;;;;;5.38;1.17;;;;;;;21.11;66.24;101616.31;5054807;28;20048;-59
2022/08/27 08:17:08;;;;;;;3.03;1.05;;;;;;;21.01;67.07;101612.84;5054629;28;20534;-59
2022/08/27 08:19:39;;;;;;;4.68;1.20;;;;;;;20.90;66.24;101621.91;5054760;28;20128;-57
2022/08/27 08:22:07;;;;;;;5.85;1.33;;;;;;;20.81;66.29;101620.16;5054649;28;20048;-58
2022/08/27 08:24:35;;;;;;;5.53;1.30;;;;;;;20.79;65.84;101622.09;5053126;28;20071;-60
2022/08/27 08:27:04;;;;;;;6.72;1.50;;;;;;;20.82;65.20;101621.81;5055074;28;20465;-66
2022/08/27 08:29:36;;;;;;;7.45;1.27;;;;;;;20.75;65.87;101626.91;5054382;28;20049;-66
2022/08/27 08:32:05;;;;;;;5.82;1.33;;;;;;;20.75;66.46;101626.91;5052654;28;20044;-66
2022/08/27 08:34:34;;;;;;;4.18;1.25;;;;;;;20.67;66.41;101629.44;5052065;28;20053;-66
2022/08/27 08:37:05;;;;;;;4.15;1.30;;;;;;;20.76;64.63;101626.78;5050661;28;20408;-58
2022/08/27 08:39:33;;;;;;;4.03;1.10;;;;;;;20.88;64.80;101626.56;5049866;28;20044;-58
2022/08/27 08:42:04;;;;;;;3.65;1.20;;;;;;;20.75;64.75;101630.44;5054565;28;20052;-67
2022/08/27 08:44:36;;;;;;;3.95;1.00;;;;;;;20.79;63.47;101630.13;5052817;28;20050;-57
2022/08/27 08:47:10;;;;;;;2.70;1.10;;;;;;;21.24;64.12;101631.97;5051501;28;20053;-58
2022/08/27 08:49:45;;;;;;;6.43;1.40;;;;;;;21.64;61.55;101630.72;5049879;28;20064;-58
2022/08/27 08:52:30;;;;;;;5.57;1.30;;;;;;;21.47;61.40;101629.69;5050877;28;20048;-57
2022/08/27 08:55:10;;;;;;;4.68;1.20;;;;;;;21.52;61.92;101621.22;5049192;28;20060;-57
2022/08/27 08:57:45;;;;;;;4.50;1.30;;;;;;;21.86;60.78;101625.91;5052401;28;20518;-68
2022/08/27 09:00:14;;;;;;;4.80;1.30;;;;;;;22.21;60.49;101629.47;5053717;28;20060;-68
2022/08/27 09:02:50;;;;;;;3.65;1.05;;;;;;;22.21;59.65;101634.81;5051693;28;20460;-67
2022/08/27 09:05:18;;;;;;;5.18;1.10;;;;;;;22.36;59.51;101630.63;5050825;28;20056;-68
2022/08/27 09:08:03;;;;;;;5.22;1.10;;;;;;;22.73;59.13;101631.31;5050340;28;20056;-68
2022/08/27 09:10:58;;;;;;;4.90;1.13;;;;;;;22.84;57.31;101631.00;5052593;28;20049;-68
2022/08/27 09:13:31;;;;;;;5.97;1.30;;;;;;;22.95;56.93;101627.19;5053872;28;20059;-69
2022/08/27 09:16:02;;;;;;;4.50;1.23;;;;;;;23.04;55.79;101620.84;5051987;28;20060;-70
2022/08/27 09:18:33;;;;;;;4.40;1.17;;;;;;;23.06;56.62;101626.03;5050129;28;20060;-69
2022/08/27 09:21:10;;;;;;;4.82;1.10;;;;;;;23.57;55.01;101623.28;5048882;28;20469;-58
2022/08/27 09:23:52;;;;;;;4.72;1.38;;;;;;;23.99;54.36;101633.06;5050305;28;20045;-71
2022/08/27 09:26:23;;;;;;;5.72;1.15;;;;;;;24.29;52.42;101628.78;5053401;28;20049;-59
2022/08/27 09:31:43;;;;;;;5.53;1.13;;;;;;;24.12;51.44;101630.69;5052755;28;20128;-57
2022/08/27 09:34:11;;;;;;;6.30;1.40;;;;;;;24.05;52.13;101634.22;5049759;28;20045;-69
2022/08/27 09:36:51;;;;;;;3.63;1.27;;;;;;;24.12;51.57;101630.69;5048872;28;20547;-58
2022/08/27 09:39:28;;;;;;;4.70;1.27;;;;;;;24.38;51.63;101624.25;5049069;28;20080;-57
2022/08/27 09:41:57;;;;;;;4.95;1.40;;;;;;;24.80;51.42;101627.63;5052012;28;20060;-57
2022/08/27 09:44:25;;;;;;;2.28;0.95;;;;;;;24.79;51.13;101620.59;5050046;28;20075;-57
2022/08/27 09:47:01;;;;;;;3.55;1.00;;;;;;;24.64;51.78;101625.88;5050264;28;20146;-57
2022/08/27 09:49:33;;;;;;;4.75;1.20;;;;;;;24.68;49.97;101629.03;5049457;28;20041;-67
2022/08/27 09:52:01;;;;;;;4.22;1.30;;;;;;;24.54;50.78;101627.88;5049565;28;20524;-57
2022/08/27 09:54:44;;;;;;;4.18;1.10;;;;;;;24.46;50.35;101632.28;5048628;28;20941;-57
2022/08/27 09:57:16;;;;;;;5.90;1.30;;;;;;;24.47;50.36;101625.06;5048949;28;20053;-56
2022/08/27 09:59:52;;;;;;;6.57;1.50;;;;;;;24.33;50.02;101629.28;5050929;28;20049;-68
2022/08/27 10:02:22;;;;;;;5.35;1.48;;;;;;;24.21;51.51;101623.44;5049741;28;20044;-68
2022/08/27 10:04:53;;;;;;;4.25;1.40;;;;;;;24.26;51.15;101626.44;5051758;28;20068;-68
2022/08/27 10:07:31;;;;;;;8.45;1.55;;;;;;;24.29;51.20;101620.72;5049406;28;20098;-57
2022/08/27 10:10:16;;;;;;;3.88;1.13;;;;;;;24.72;50.43;101612.41;5048010;28;20053;-57
2022/08/27 10:12:55;;;;;;;6.15;1.60;;;;;;;24.83;49.66;101621.94;5051506;28;20593;-66
2022/08/27 10:15:29;;;;;;;3.03;1.20;;;;;;;24.84;50.24;101622.75;5049272;28;20496;-68
2022/08/27 10:18:09;;;;;;;3.55;1.20;;;;;;;24.76;49.68;101615.56;5049184;28;20068;-58
2022/08/27 10:20:45;;;;;;;5.50;1.45;;;;;;;24.60;50.47;101611.91;5049261;28;20480;-57
2022/08/27 10:23:22;;;;;;;3.72;1.40;;;;;;;24.57;50.73;101611.41;5049308;28;20049;-68
2022/08/27 10:25:59;;;;;;;5.07;1.35;;;;;;;24.58;50.80;101613.94;5047547;28;20567;-55
2022/08/27 10:28:41;;;;;;;4.05;1.30;;;;;;;24.34;51.48;101612.16;5051289;28;20435;-68
2022/08/27 10:31:23;;;;;;;7.32;1.50;;;;;;;24.35;52.20;101613.00;5049443;28;20048;-56
2022/08/27 10:34:03;;;;;;;5.82;1.52;;;;;;;24.33;52.62;101618.53;5047777;28;20861;-68
2022/08/27 10:36:43;;;;;;;3.67;1.30;;;;;;;24.12;52.37;101619.94;5048645;28;20052;-60
2022/08/27 10:39:24;;;;;;;3.30;1.20;;;;;;;24.23;51.81;101625.97;5048164;28;20490;-57
2022/08/27 10:42:03;;;;;;;13.45;1.83;;;;;;;24.10;52.20;101615.75;5048532;28;20048;-60
2022/08/27 10:44:42;;;;;;;6.80;1.63;;;;;;;24.17;51.85;101616.72;5049098;28;20056;-58
2022/08/27 10:47:23;;;;;;;9.88;1.75;;;;;;;24.05;51.59;101621.66;5051766;28;20079;-59
2022/08/27 10:50:00;;;;;;;4.10;1.27;;;;;;;24.23;53.23;101624.13;5052221;28;20440;-60
2022/08/27 10:52:35;;;;;;;5.50;1.38;;;;;;;24.25;51.55;101615.88;5051301;28;20136;-59
2022/08/27 10:55:12;;;;;;;6.47;1.30;;;;;;;24.27;51.42;101627.31;5052033;28;20099;-59
2022/08/27 10:58:01;;;;;;;4.97;1.23;;;;;;;24.40;52.17;101616.00;5050964;28;20053;-63
2022/08/27 11:00:38;;;;;;;6.78;1.70;;;;;;;24.60;51.73;101611.91;5050070;28;20045;-61
2022/08/27 11:03:11;;;;;;;4.78;1.20;;;;;;;24.80;51.70;101617.72;5046950;28;20041;-59
2022/08/27 11:05:44;;;;;;;5.80;1.67;;;;;;;24.67;50.22;101617.47;5048269;28;20072;-58
2022/08/27 11:08:19;;;;;;;3.67;1.20;;;;;;;25.10;49.91;101617.06;5047271;28;20041;-62
2022/08/27 11:10:50;;;;;;;7.55;1.38;;;;;;;25.27;49.17;101604.34;5049448;28;20057;-61
2022/08/27 11:13:31;;;;;;;5.20;1.50;;;;;;;25.59;49.34;101614.06;5051840;28;20037;-62
2022/08/27 11:16:02;;;;;;;4.75;1.35;;;;;;;25.94;46.56;101600.13;5051850;28;20060;-62
2022/08/27 11:18:40;;;;;;;6.18;1.27;;;;;;;26.28;46.80;101604.16;5051098;28;20063;-63
2022/08/27 11:21:14;;;;;;;2.50;1.20;;;;;;;26.42;44.69;101606.03;5049222;28;20037;-62
2022/08/27 11:23:47;;;;;;;5.28;1.50;;;;;;;25.99;44.89;101600.41;5045586;28;20118;-63
2022/08/27 11:26:16;;;;;;;4.13;1.15;;;;;;;25.77;45.37;101597.56;5051411;28;20049;-59
2022/08/27 11:28:49;;;;;;;7.93;1.55;;;;;;;25.67;45.29;101602.38;5048546;28;20065;-59
2022/08/27 11:31:22;;;;;;;4.70;1.20;;;;;;;25.98;46.20;101594.16;5049988;28;20052;-60
2022/08/27 11:34:01;;;;;;;5.70;1.63;;;;;;;26.14;45.05;101597.75;5049372;28;20053;-60
2022/08/27 11:37:02;;;;;;;5.68;1.30;;;;;;;25.86;45.92;101597.50;5049267;28;20502;-59
2022/08/27 11:39:53;;;;;;;4.68;1.25;;;;;;;25.68;46.41;101604.06;5050273;28;20048;-63
2022/08/27 11:42:34;;;;;;;4.40;1.30;;;;;;;25.77;47.15;101602.97;5049249;28;20103;-64
2022/08/27 11:45:10;;;;;;;6.15;1.30;;;;;;;25.66;46.51;101592.63;5047891;28;20056;-63
2022/08/27 11:47:38;;;;;;;4.70;1.05;;;;;;;25.37;45.97;101586.13;5049305;28;20124;-59
2022/08/27 11:50:18;;;;;;;6.93;1.45;;;;;;;25.30;46.60;101587.84;5048815;28;20045;-60
2022/08/27 11:52:57;;;;;;;5.60;1.30;;;;;;;25.51;46.10;101589.91;5048562;28;20048;-59
2022/08/27 11:55:29;;;;;;;5.07;1.55;;;;;;;25.43;44.64;101589.97;5047482;28;20095;-61
2022/08/27 11:58:08;;;;;;;5.27;1.20;;;;;;;25.38;44.76;101592.34;5048781;28;20064;-62